Decoded Metar for UUOO (VORONEZH in RUSSIA) (IATA:VOZ) | Meteo·Mobile Aviation Weather
aviador You're here:

UUOO Decoded Metar

VORONEZH in RUSSIA
Report Time2019-02-22 20:30:00
UTC Time2019-02-22 21:08:02
Flight Rules mvfr MVFR
Wind340° at 6 kt
W.Decomp.*RWY 30: 5.0 kt HW 3.3 kt RCW
W.Rank340° ranks 30
Current wind is below 340° avg. (7.5)
Visibility8000 m
Phenomena:Light Snow
Clouds:Overcast 015 Hf
Expected CloudBase > 1,200 ft AGL from Temp-Dew spread
Ceiling1,500 ft
Temp-8°C (ISA -22)
Dew Point-11°C (79% RH)
AAT-13.3°C
QNH1021 hPa
Density Alt-2,454 ft
Elevation515 ft
Report Wrong Elevation
Raw Report
UUOO 222030Z 34003MPS 8000 -SN OVC015 M08/M11 Q1021 R30/090060
NOSIG RMK QFE752=

Extra information for UUOO:More info

Metar Taf Metar & Taf Last 4 Metars F.Rules Stats Wind Profile Meteogram Temp Stats Airport Information Weather charts Add Link Nearby VenuesMetar ALERT Operation Metar Decoded Social comments